sensor_id;sensor_type;location;lat;lon;timestamp;pressure;altitude;pressure_sealevel;temperature;humidity
6034;BME280;3045;43.226;27.858;2022-11-15T00:01:16;36399.25;;;10.60;100.00
6034;BME280;3045;43.226;27.858;2022-11-15T00:03:43;38663.16;;;10.62;100.00
6034;BME280;3045;43.226;27.858;2022-11-15T00:06:11;42866.72;;;10.60;100.00
6034;BME280;3045;43.226;27.858;2022-11-15T00:08:40;43191.19;;;10.61;100.00
6034;BME280;3045;43.226;27.858;2022-11-15T00:11:10;39622.31;;;10.46;100.00
6034;BME280;3045;43.226;27.858;2022-11-15T00:13:37;37360.94;;;10.48;100.00
6034;BME280;3045;43.226;27.858;2022-11-15T00:16:05;38014.28;;;10.59;100.00
6034;BME280;3045;43.226;27.858;2022-11-15T00:18:32;38015.28;;;10.60;100.00
6034;BME280;3045;43.226;27.858;2022-11-15T00:21:04;38337.16;;;10.58;100.00
6034;BME280;3045;43.226;27.858;2022-11-15T00:23:31;38986.13;;;10.62;100.00
6034;BME280;3045;43.226;27.858;2022-11-15T00:26:00;38658.03;;;10.54;100.00
6034;BME280;3045;43.226;27.858;2022-11-15T00:28:27;37688.75;;;10.55;100.00
6034;BME280;3045;43.226;27.858;2022-11-15T00:30:59;38655.28;;;10.50;100.00
6034;BME280;3045;43.226;27.858;2022-11-15T00:33:26;38007.19;;;10.48;100.00
6034;BME280;3045;43.226;27.858;2022-11-15T00:35:53;36068.19;;;10.47;100.00
6034;BME280;3045;43.226;27.858;2022-11-15T00:38:20;36072.03;;;10.53;100.00
6034;BME280;3045;43.226;27.858;2022-11-15T00:40:47;37670.00;;;10.27;100.00
6034;BME280;3045;43.226;27.858;2022-11-15T00:43:15;37040.19;;;10.51;100.00
6034;BME280;3045;43.226;27.858;2022-11-15T00:45:42;36717.09;;;10.51;100.00
6034;BME280;3045;43.226;27.858;2022-11-15T00:48:09;36070.75;;;10.51;100.00
6034;BME280;3045;43.226;27.858;2022-11-15T00:50:36;35423.88;;;10.49;100.00
6034;BME280;3045;43.226;27.858;2022-11-15T00:53:03;35098.78;;;10.46;100.00
6034;BME280;3045;43.226;27.858;2022-11-15T00:55:30;32838.03;;;10.43;100.00
6034;BME280;3045;43.226;27.858;2022-11-15T00:57:57;31543.19;;;10.35;100.00
6034;BME280;3045;43.226;27.858;2022-11-15T01:00:25;29930.72;;;10.34;100.00
6034;BME280;3045;43.226;27.858;2022-11-15T01:02:52;28962.59;;;10.32;100.00
6034;BME280;3045;43.226;27.858;2022-11-15T01:05:19;27672.03;;;10.28;100.00
6034;BME280;3045;43.226;27.858;2022-11-15T01:07:46;28635.22;;;10.22;100.00
6034;BME280;3045;43.226;27.858;2022-11-15T01:10:13;27338.25;;;10.04;100.00
6034;BME280;3045;43.226;27.858;2022-11-15T01:12:40;26056.91;;;10.17;100.00
6034;BME280;3045;43.226;27.858;2022-11-15T01:15:08;23802.78;;;10.12;100.00
6034;BME280;3045;43.226;27.858;2022-11-15T01:17:36;23158.38;;;10.09;100.00
6034;BME280;3045;43.226;27.858;2022-11-15T01:20:03;19941.31;;;10.00;100.00
6034;BME280;3045;43.226;27.858;2022-11-15T01:22:30;18336.94;;;10.03;100.00
6034;BME280;3045;43.226;27.858;2022-11-15T01:24:58;18659.41;;;10.07;100.00
6034;BME280;3045;43.226;27.858;2022-11-15T01:27:24;19944.34;;;10.08;100.00
6034;BME280;3045;43.226;27.858;2022-11-15T01:29:51;20268.81;;;10.17;100.00
6034;BME280;3045;43.226;27.858;2022-11-15T01:32:18;21552.75;;;10.13;100.00
6034;BME280;3045;43.226;27.858;2022-11-15T01:34:47;21875.41;;;10.16;100.00
6034;BME280;3045;43.226;27.858;2022-11-15T01:37:13;23807.88;;;10.24;100.00
6034;BME280;3045;43.226;27.858;2022-11-15T01:39:40;25099.63;;;10.34;100.00
6034;BME280;3045;43.226;27.858;2022-11-15T01:42:10;27036.16;;;10.44;100.00
6034;BME280;3045;43.226;27.858;2022-11-15T01:44:41;29936.13;;;10.44;100.00
6034;BME280;3045;43.226;27.858;2022-11-15T01:47:12;29611.63;;;10.40;100.00
6034;BME280;3045;43.226;27.858;2022-11-15T01:49:45;28324.72;;;10.44;100.00
6034;BME280;3045;43.226;27.858;2022-11-15T01:52:19;28969.72;;;10.45;100.00
6034;BME280;3045;43.226;27.858;2022-11-15T01:54:48;28315.69;;;10.27;100.00
6034;BME280;3045;43.226;27.858;2022-11-15T01:57:17;24777.34;;;10.33;100.00
6034;BME280;3045;43.226;27.858;2022-11-15T01:59:45;22847.28;;;10.34;100.00
6034;BME280;3045;43.226;27.858;2022-11-15T02:02:12;21556.59;;;10.23;100.00
6034;BME280;3045;43.226;27.858;2022-11-15T02:04:41;19943.19;;;10.05;100.00
6034;BME280;3045;43.226;27.858;2022-11-15T02:07:10;16735.94;;;10.15;100.00
6034;BME280;3045;43.226;27.858;2022-11-15T02:09:39;16094.47;;;10.16;100.00
6034;BME280;3045;43.226;27.858;2022-11-15T02:12:07;15130.97;;;10.12;100.00
6034;BME280;3045;43.226;27.858;2022-11-15T02:14:37;13528.78;;;10.17;100.00
6034;BME280;3045;43.226;27.858;2022-11-15T02:17:16;11924.81;;;10.12;100.00
6034;BME280;3045;43.226;27.858;2022-11-15T02:23:04;11288.13;;;10.29;100.00
6034;BME280;3045;43.226;27.858;2022-11-15T02:25:41;13852.22;;;10.27;100.00
6034;BME280;3045;43.226;27.858;2022-11-15T02:28:44;15133.06;;;10.19;100.00
6034;BME280;3045;43.226;27.858;2022-11-15T02:31:18;17060.38;;;10.25;100.00
6034;BME280;3045;43.226;27.858;2022-11-15T02:33:53;17701.28;;;10.22;100.00
6034;BME280;3045;43.226;27.858;2022-11-15T02:36:31;17702.66;;;10.26;100.00
6034;BME280;3045;43.226;27.858;2022-11-15T02:39:06;16738.72;;;10.23;100.00
6034;BME280;3045;43.226;27.858;2022-11-15T02:41:41;16740.69;;;10.29;100.00
6034;BME280;3045;43.226;27.858;2022-11-15T02:44:16;18346.28;;;10.30;100.00
6034;BME280;3045;43.226;27.858;2022-11-15T02:46:48;16735.47;;;10.13;100.00
6034;BME280;3045;43.226;27.858;2022-11-15T02:49:34;15770.22;;;10.04;100.00
6034;BME280;3045;43.226;27.858;2022-11-15T02:52:01;15453.88;;;10.19;100.00
6034;BME280;3045;43.226;27.858;2022-11-15T02:54:30;14813.16;;;10.22;100.00
6034;BME280;3045;43.226;27.858;2022-11-15T02:57:01;15773.63;;;10.16;100.00
6034;BME280;3045;43.226;27.858;2022-11-15T03:02:54;16735.16;;;10.12;100.00
6034;BME280;3045;43.226;27.858;2022-11-15T03:05:29;15771.91;;;10.10;100.00
6034;BME280;3045;43.226;27.858;2022-11-15T03:08:06;14489.22;;;10.11;100.00
6034;BME280;3045;43.226;27.858;2022-11-15T03:10:42;14487.91;;;10.06;100.00
6034;BME280;3045;43.226;27.858;2022-11-15T03:13:19;15131.25;;;10.13;100.00
6034;BME280;3045;43.226;27.858;2022-11-15T03:15:51;15773.16;;;10.14;100.00
6034;BME280;3045;43.226;27.858;2022-11-15T03:18:24;17056.06;;;10.12;100.00
6034;BME280;3045;43.226;27.858;2022-11-15T03:20:55;18017.66;;;10.08;100.00
6034;BME280;3045;43.226;27.858;2022-11-15T03:23:25;18660.47;;;10.10;100.00
6034;BME280;3045;43.226;27.858;2022-11-15T03:25:53;18342.22;;;10.18;100.00
6034;BME280;3045;43.226;27.858;2022-11-15T03:28:25;19944.72;;;10.09;100.00
6034;BME280;3045;43.226;27.858;2022-11-15T03:30:55;19942.06;;;10.02;100.00
6034;BME280;3045;43.226;27.858;2022-11-15T03:33:25;18011.78;;;9.91;100.00
6034;BME280;3045;43.226;27.858;2022-11-15T03:35:53;16088.50;;;9.96;100.00
6034;BME280;3045;43.226;27.858;2022-11-15T03:38:23;15450.22;;;10.07;100.00
6034;BME280;3045;43.226;27.858;2022-11-15T03:40:54;16092.44;;;10.09;100.00
6034;BME280;3045;43.226;27.858;2022-11-15T03:43:30;18657.09;;;10.00;100.00
6034;BME280;3045;43.226;27.858;2022-11-15T03:46:02;19945.84;;;10.12;100.00
6034;BME280;3045;43.226;27.858;2022-11-15T03:48:35;20588.94;;;10.14;100.00
6034;BME280;3045;43.226;27.858;2022-11-15T03:51:04;21235.78;;;10.24;100.00
6034;BME280;3045;43.226;27.858;2022-11-15T03:53:31;20915.00;;;10.26;100.00
6034;BME280;3045;43.226;27.858;2022-11-15T03:55:58;21231.41;;;10.13;100.00
6034;BME280;3045;43.226;27.858;2022-11-15T03:58:25;20912.63;;;10.20;100.00
6034;BME280;3045;43.226;27.858;2022-11-15T04:00:52;21233.41;;;10.18;100.00
6034;BME280;3045;43.226;27.858;2022-11-15T04:03:19;22842.59;;;10.23;100.00
6034;BME280;3045;43.226;27.858;2022-11-15T04:05:47;21555.81;;;10.21;100.00
6034;BME280;3045;43.226;27.858;2022-11-15T04:08:14;21552.97;;;10.14;100.00
6034;BME280;3045;43.226;27.858;2022-11-15T04:10:41;22517.47;;;10.14;100.00
6034;BME280;3045;43.226;27.858;2022-11-15T04:13:08;22196.44;;;10.15;100.00
6034;BME280;3045;43.226;27.858;2022-11-15T04:15:35;20267.47;;;10.13;100.00
6034;BME280;3045;43.226;27.858;2022-11-15T04:18:02;18980.69;;;10.07;100.00
6034;BME280;3045;43.226;27.858;2022-11-15T04:20:30;17696.16;;;10.06;100.00
6034;BME280;3045;43.226;27.858;2022-11-15T04:23:17;18020.97;;;10.18;100.00
6034;BME280;3045;43.226;27.858;2022-11-15T04:26:03;19625.00;;;10.13;100.00
6034;BME280;3045;43.226;27.858;2022-11-15T04:28:30;19306.41;;;10.20;100.00
6034;BME280;3045;43.226;27.858;2022-11-15T04:30:57;19302.16;;;10.08;100.00
6034;BME280;3045;43.226;27.858;2022-11-15T04:33:24;19303.09;;;10.11;100.00
6034;BME280;3045;43.226;27.858;2022-11-15T04:35:51;20910.25;;;10.14;100.00
6034;BME280;3045;43.226;27.858;2022-11-15T04:38:37;18658.50;;;10.04;100.00
6034;BME280;3045;43.226;27.858;2022-11-15T04:41:04;17053.44;;;10.04;100.00
6034;BME280;3045;43.226;27.858;2022-11-15T04:43:31;14485.47;;;9.98;100.00
6034;BME280;3045;43.226;27.858;2022-11-15T04:45:58;13844.97;;;10.00;100.00
6034;BME280;3045;43.226;27.858;2022-11-15T04:48:25;12239.22;;;9.87;100.00
6034;BME280;3045;43.226;27.858;2022-11-15T04:50:52;11600.63;;;9.96;100.00
6034;BME280;3045;43.226;27.858;2022-11-15T04:53:19;11595.69;;;9.75;100.00
6034;BME280;3045;43.226;27.858;2022-11-15T04:55:47;11278.91;;;9.90;100.00
6034;BME280;3045;43.226;27.858;2022-11-15T04:58:14;11279.59;;;9.93;100.00
6034;BME280;3045;43.226;27.858;2022-11-15T05:00:41;11919.00;;;9.88;100.00
6034;BME280;3045;43.226;27.858;2022-11-15T05:03:09;11914.44;;;9.69;100.00
6034;BME280;3045;43.226;27.858;2022-11-15T05:05:53;12236.44;;;9.76;100.00
6034;BME280;3045;43.226;27.858;2022-11-15T05:08:20;11918.50;;;9.86;100.00
6034;BME280;3045;43.226;27.858;2022-11-15T05:10:49;12236.94;;;9.78;100.00
6034;BME280;3045;43.226;27.858;2022-11-15T05:13:16;12880.38;;;9.89;100.00
6034;BME280;3045;43.226;27.858;2022-11-15T05:15:43;13202.41;;;9.95;100.00
6034;BME280;3045;43.226;27.858;2022-11-15T05:18:10;15125.72;;;9.94;100.00
6034;BME280;3045;43.226;27.858;2022-11-15T05:20:37;15126.91;;;9.98;100.00
6034;BME280;3045;43.226;27.858;2022-11-15T05:23:04;15125.56;;;9.94;100.00
6034;BME280;3045;43.226;27.858;2022-11-15T05:25:32;15127.38;;;10.00;100.00
6034;BME280;3045;43.226;27.858;2022-11-15T05:28:00;16410.25;;;9.99;100.00
6034;BME280;3045;43.226;27.858;2022-11-15T05:30:27;16412.63;;;10.07;100.00
6034;BME280;3045;43.226;27.858;2022-11-15T05:32:54;16730.91;;;9.99;100.00
6034;BME280;3045;43.226;27.858;2022-11-15T05:35:28;17054.25;;;10.06;100.00
6034;BME280;3045;43.226;27.858;2022-11-15T05:37:57;17698.03;;;10.12;100.00
6034;BME280;3045;43.226;27.858;2022-11-15T05:40:24;18343.09;;;10.21;100.00
6034;BME280;3045;43.226;27.858;2022-11-15T05:42:51;20913.59;;;10.22;100.00
6034;BME280;3045;43.226;27.858;2022-11-15T05:45:20;20590.50;;;10.18;100.00
6034;BME280;3045;43.226;27.858;2022-11-15T05:47:47;21557.63;;;10.25;100.00
6034;BME280;3045;43.226;27.858;2022-11-15T05:50:16;20914.41;;;10.24;100.00
6034;BME280;3045;43.226;27.858;2022-11-15T05:52:46;21238.00;;;10.30;100.00
6034;BME280;3045;43.226;27.858;2022-11-15T05:55:14;20274.56;;;10.32;100.00
6034;BME280;3045;43.226;27.858;2022-11-15T05:57:42;20598.47;;;10.38;100.00
6034;BME280;3045;43.226;27.858;2022-11-15T06:00:09;22526.75;;;10.36;100.00
6034;BME280;3045;43.226;27.858;2022-11-15T06:02:38;24134.91;;;10.36;100.00
6034;BME280;3045;43.226;27.858;2022-11-15T06:05:05;24141.84;;;10.51;100.00
6034;BME280;3045;43.226;27.858;2022-11-15T06:07:32;25109.56;;;10.56;100.00
6034;BME280;3045;43.226;27.858;2022-11-15T06:09:59;28326.00;;;10.47;100.00
6034;BME280;3045;43.226;27.858;2022-11-15T06:12:26;28006.09;;;10.51;100.00
6034;BME280;3045;43.226;27.858;2022-11-15T06:14:53;30590.59;;;10.62;100.00
6034;BME280;3045;43.226;27.858;2022-11-15T06:17:20;30908.09;;;10.53;100.00
6034;BME280;3045;43.226;27.858;2022-11-15T06:19:48;29615.94;;;10.48;100.00
6034;BME280;3045;43.226;27.858;2022-11-15T06:22:15;29615.41;;;10.47;100.00
6034;BME280;3045;43.226;27.858;2022-11-15T06:24:42;31874.88;;;10.51;100.00
6034;BME280;3045;43.226;27.858;2022-11-15T06:27:10;34139.81;;;10.62;100.00
6034;BME280;3045;43.226;27.858;2022-11-15T06:29:37;34461.16;;;10.59;100.00
6034;BME280;3045;43.226;27.858;2022-11-15T06:32:04;37056.66;;;10.77;100.00
6034;BME280;3045;43.226;27.858;2022-11-15T06:34:31;41912.06;;;10.82;100.00
6034;BME280;3045;43.226;27.858;2022-11-15T06:36:59;43867.97;;;10.99;100.00
6034;BME280;3045;43.226;27.858;2022-11-15T06:39:26;45172.13;;;11.09;100.00
6034;BME280;3045;43.226;27.858;2022-11-15T06:41:53;47450.34;;;11.19;100.00
6034;BME280;3045;43.226;27.858;2022-11-15T06:44:20;54290.19;;;11.40;100.00
6034;BME280;3045;43.226;27.858;2022-11-15T06:46:47;63720.50;;;11.28;100.00
6034;BME280;3045;43.226;27.858;2022-11-15T06:49:14;64384.28;;;11.38;100.00
6034;BME280;3045;43.226;27.858;2022-11-15T06:51:42;63725.44;;;11.32;100.00
6034;BME280;3045;43.226;27.858;2022-11-15T06:54:13;59160.50;;;11.29;100.00
6034;BME280;3045;43.226;27.858;2022-11-15T06:56:40;55575.81;;;11.24;100.00
6034;BME280;3045;43.226;27.858;2022-11-15T06:59:07;55257.31;;;11.31;100.00
6034;BME280;3045;43.226;27.858;2022-11-15T07:01:34;60783.69;;;11.24;100.00
6034;BME280;3045;43.226;27.858;2022-11-15T07:04:01;63748.00;;;11.53;100.00
6034;BME280;3045;43.226;27.858;2022-11-15T07:06:28;65046.22;;;11.47;100.00
6034;BME280;3045;43.226;27.858;2022-11-15T07:08:54;61125.84;;;11.40;100.00
6034;BME280;3045;43.226;27.858;2022-11-15T07:11:23;59489.75;;;11.33;100.00
6034;BME280;3045;43.226;27.858;2022-11-15T07:13:50;62436.50;;;11.46;100.00
6034;BME280;3045;43.226;27.858;2022-11-15T07:16:17;63433.31;;;11.64;100.00
6034;BME280;3045;43.226;27.858;2022-11-15T07:18:44;65388.28;;;11.61;100.00
6034;BME280;3045;43.226;27.858;2022-11-15T07:21:11;66383.03;;;11.75;100.00
6034;BME280;3045;43.226;27.858;2022-11-15T07:23:38;76192.75;;;11.74;100.00
6034;BME280;3045;43.226;27.858;2022-11-15T07:26:05;81761.59;;;11.72;100.00
6034;BME280;3045;43.226;27.858;2022-11-15T07:28:34;71250.97;;;11.47;100.00
6034;BME280;3045;43.226;27.858;2022-11-15T07:31:05;66680.84;;;11.50;100.00
6034;BME280;3045;43.226;27.858;2022-11-15T07:33:33;56253.69;;;11.53;100.00
6034;BME280;3045;43.226;27.858;2022-11-15T07:36:00;46168.22;;;11.38;100.00
6034;BME280;3045;43.226;27.858;2022-11-15T07:38:28;34500.31;;;11.23;100.00
6034;BME280;3045;43.226;27.858;2022-11-15T07:41:00;29334.03;;;11.25;100.00
6034;BME280;3045;43.226;27.858;2022-11-15T07:43:28;26752.28;;;11.23;100.00
6034;BME280;3045;43.226;27.858;2022-11-15T07:45:56;22563.97;;;11.26;100.00
6034;BME280;3045;43.226;27.858;2022-11-15T07:48:23;19990.13;;;11.30;100.00
6034;BME280;3045;43.226;27.858;2022-11-15T07:50:50;22567.78;;;11.35;100.00
6034;BME280;3045;43.226;27.858;2022-11-15T07:53:17;21927.91;;;11.45;100.00
6034;BME280;3045;43.226;27.858;2022-11-15T07:55:44;27406.78;;;11.42;100.00
6034;BME280;3045;43.226;27.858;2022-11-15T07:58:14;30641.47;;;11.55;100.00
6034;BME280;3045;43.226;27.858;2022-11-15T08:00:41;33542.84;;;11.43;100.00
6034;BME280;3045;43.226;27.858;2022-11-15T08:03:10;41644.19;;;11.59;100.00
6034;BME280;3045;43.226;27.858;2022-11-15T08:05:39;40671.38;;;11.58;100.00
6034;BME280;3045;43.226;27.858;2022-11-15T08:08:07;36460.59;;;11.55;100.00
6034;BME280;3045;43.226;27.858;2022-11-15T08:10:35;36137.34;;;11.56;100.00
6034;BME280;3045;43.226;27.858;2022-11-15T08:13:05;35813.19;;;11.55;100.00
6034;BME280;3045;43.226;27.858;2022-11-15T08:15:33;35169.72;;;11.60;100.00
6034;BME280;3045;43.226;27.858;2022-11-15T08:18:10;35490.97;;;11.57;100.00
6034;BME280;3045;43.226;27.858;2022-11-15T08:20:38;37111.75;;;11.61;100.00
6034;BME280;3045;43.226;27.858;2022-11-15T08:23:06;36786.13;;;11.58;100.00
6034;BME280;3045;43.226;27.858;2022-11-15T08:25:34;35486.88;;;11.50;100.00
6034;BME280;3045;43.226;27.858;2022-11-15T08:28:03;33876.41;;;11.61;100.00
6034;BME280;3045;43.226;27.858;2022-11-15T08:30:30;34525.00;;;11.64;100.00
6034;BME280;3045;43.226;27.858;2022-11-15T08:33:03;33232.16;;;11.65;100.00
6034;BME280;3045;43.226;27.858;2022-11-15T08:35:32;30316.59;;;11.52;100.00
6034;BME280;3045;43.226;27.858;2022-11-15T08:37:59;30970.38;;;11.66;100.00
6034;BME280;3045;43.226;27.858;2022-11-15T08:40:26;32591.19;;;11.74;100.00
6034;BME280;3045;43.226;27.858;2022-11-15T08:42:53;38102.13;;;11.90;100.00
6034;BME280;3045;43.226;27.858;2022-11-15T08:45:23;43293.94;;;11.97;100.00
6034;BME280;3045;43.226;27.858;2022-11-15T08:47:52;45574.59;;;12.08;100.00
6034;BME280;3045;43.226;27.858;2022-11-15T08:50:24;50454.19;;;12.14;100.00
6034;BME280;3045;43.226;27.858;2022-11-15T08:52:52;52085.69;;;12.20;100.00
6034;BME280;3045;43.226;27.858;2022-11-15T08:55:19;49158.28;;;12.20;100.00
6034;BME280;3045;43.226;27.858;2022-11-15T08:57:46;45908.59;;;12.20;100.00
6034;BME280;3045;43.226;27.858;2022-11-15T09:00:14;46568.47;;;12.32;100.00
6034;BME280;3045;43.226;27.858;2022-11-15T09:02:41;51455.09;;;12.43;100.00
6034;BME280;3045;43.226;27.858;2022-11-15T09:05:10;59275.31;;;12.43;100.00
6034;BME280;3045;43.226;27.858;2022-11-15T09:07:37;62857.44;;;12.35;100.00
6034;BME280;3045;43.226;27.858;2022-11-15T09:10:06;62546.06;;;12.49;100.00
6034;BME280;3045;43.226;27.858;2022-11-15T09:12:33;64850.13;;;12.65;100.00
6034;BME280;3045;43.226;27.858;2022-11-15T09:15:00;73045.44;;;12.76;100.00
6034;BME280;3045;43.226;27.858;2022-11-15T09:17:27;77629.84;;;12.71;100.00
6034;BME280;3045;43.226;27.858;2022-11-15T09:19:54;82235.13;;;12.77;100.00
6034;BME280;3045;43.226;27.858;2022-11-15T09:22:21;85527.75;;;12.80;100.00
6034;BME280;3045;43.226;27.858;2022-11-15T09:24:48;88157.94;;;12.79;100.00
6034;BME280;3045;43.226;27.858;2022-11-15T09:27:16;83234.53;;;12.87;100.00
6034;BME280;3045;43.226;27.858;2022-11-15T09:29:46;77972.66;;;12.82;100.00
6034;BME280;3045;43.226;27.858;2022-11-15T09:32:13;69780.69;;;12.85;100.00
6034;BME280;3045;43.226;27.858;2022-11-15T09:34:40;73067.41;;;12.94;100.00
6034;BME280;3045;43.226;27.858;2022-11-15T09:37:07;82594.78;;;12.99;100.00
6034;BME280;3045;43.226;27.858;2022-11-15T09:39:36;85563.56;;;13.05;100.00
6034;BME280;3045;43.226;27.858;2022-11-15T09:42:25;83931.56;;;13.14;100.00
6034;BME280;3045;43.226;27.858;2022-11-15T09:45:17;88880.81;;;13.22;100.00
6034;BME280;3045;43.226;27.858;2022-11-15T09:47:59;93161.00;;;13.18;100.00
6034;BME280;3045;43.226;27.858;2022-11-15T09:50:36;94819.53;;;13.24;100.00
6034;BME280;3045;43.226;27.858;2022-11-15T09:53:03;96777.28;;;13.10;100.00
6034;BME280;3045;43.226;27.858;2022-11-15T09:55:36;84930.19;;;13.22;100.00
6034;BME280;3045;43.226;27.858;2022-11-15T09:58:18;89224.78;;;13.32;100.00
6034;BME280;3045;43.226;27.858;2022-11-15T10:00:51;97146.34;;;13.34;100.00
6034;BME280;3045;43.226;27.858;2022-11-15T10:03:25;84272.06;;;13.22;100.00
6034;BME280;3045;43.226;27.858;2022-11-15T10:05:59;82946.25;;;13.15;100.00
6034;BME280;3045;43.226;27.858;2022-11-15T10:08:40;81658.97;;;13.36;100.00
6034;BME280;3045;43.226;27.858;2022-11-15T10:11:11;83282.25;;;13.20;100.00
6034;BME280;3045;43.226;27.858;2022-11-15T10:13:45;79670.72;;;13.24;100.00
6034;BME280;3045;43.226;27.858;2022-11-15T10:16:34;77046.91;;;13.27;100.00
6034;BME280;3045;43.226;27.858;2022-11-15T10:19:10;73436.16;;;13.26;100.00
6034;BME280;3045;43.226;27.858;2022-11-15T10:21:59;68500.59;;;13.10;100.00
6034;BME280;3045;43.226;27.858;2022-11-15T10:24:28;66868.31;;;13.14;100.00
6034;BME280;3045;43.226;27.858;2022-11-15T10:27:00;67846.91;;;13.11;100.00
6034;BME280;3045;43.226;27.858;2022-11-15T10:29:29;69831.09;;;13.27;100.00
6034;BME280;3045;43.226;27.858;2022-11-15T10:31:56;71489.50;;;13.44;100.00
6034;BME280;3045;43.226;27.858;2022-11-15T10:34:23;80371.31;;;13.56;100.00
6034;BME280;3045;43.226;27.858;2022-11-15T10:36:55;86955.03;;;13.56;100.00
6034;BME280;3045;43.226;27.858;2022-11-15T10:39:22;87273.34;;;13.49;100.00
6034;BME280;3045;43.226;27.858;2022-11-15T10:41:50;86969.13;;;13.66;100.00
6034;BME280;3045;43.226;27.858;2022-11-15T10:44:20;98202.63;;;13.73;100.00
6034;BME280;3045;43.226;27.858;2022-11-15T10:47:16;110133.03;;;13.77;100.00
6034;BME280;3045;43.226;27.858;2022-11-15T10:49:57;116446.50;;;13.79;100.00
6034;BME280;3045;43.226;27.858;2022-11-15T10:52:24;113816.41;;;13.94;100.00
6034;BME280;3045;43.226;27.858;2022-11-15T10:54:54;117805.31;;;13.94;100.00
6034;BME280;3045;43.226;27.858;2022-11-15T10:57:28;134889.63;;;14.02;100.00
6034;BME280;3045;43.226;27.858;2022-11-15T10:59:59;127807.13;;;13.98;100.00
6034;BME280;3045;43.226;27.858;2022-11-15T11:02:31;136410.41;;;13.95;100.00
6034;BME280;3045;43.226;27.858;2022-11-15T11:05:00;140009.06;;;13.74;100.00
6034;BME280;3045;43.226;27.858;2022-11-15T11:07:31;147191.69;;;13.94;100.00
6034;BME280;3045;43.226;27.858;2022-11-15T11:10:00;149545.22;;;13.95;100.00
6034;BME280;3045;43.226;27.858;2022-11-15T11:12:30;149565.50;;;14.03;100.00
6034;BME280;3045;43.226;27.858;2022-11-15T11:14:59;149561.66;;;14.02;100.00
6034;BME280;3045;43.226;27.858;2022-11-15T11:17:35;149566.75;;;14.04;100.00
6034;BME280;3045;43.226;27.858;2022-11-15T11:20:11;149606.03;;;14.19;100.00
6034;BME280;3045;43.226;27.858;2022-11-15T11:22:54;149599.72;;;14.17;100.00
6034;BME280;3045;43.226;27.858;2022-11-15T11:25:30;149625.06;;;14.27;100.00
6034;BME280;3045;43.226;27.858;2022-11-15T11:28:21;149623.78;;;14.27;100.00
6034;BME280;3045;43.226;27.858;2022-11-15T11:31:03;149664.38;;;14.43;100.00
6034;BME280;3045;43.226;27.858;2022-11-15T11:33:39;149682.16;;;14.50;100.00
6034;BME280;3045;43.226;27.858;2022-11-15T11:36:21;149721.47;;;14.66;100.00
6034;BME280;3045;43.226;27.858;2022-11-15T11:38:56;149692.31;;;14.54;100.00
6034;BME280;3045;43.226;27.858;2022-11-15T11:41:42;149682.16;;;14.50;100.00
6034;BME280;3045;43.226;27.858;2022-11-15T11:44:28;149687.22;;;14.52;100.00
6034;BME280;3045;43.226;27.858;2022-11-15T11:47:00;149703.72;;;14.58;100.00
6034;BME280;3045;43.226;27.858;2022-11-15T11:49:33;149678.34;;;14.48;100.00
6034;BME280;3045;43.226;27.858;2022-11-15T11:52:08;149721.47;;;14.66;100.00
6034;BME280;3045;43.226;27.858;2022-11-15T11:54:46;149743.00;;;14.74;100.00
6034;BME280;3045;43.226;27.858;2022-11-15T11:57:25;149759.53;;;14.81;100.00
6034;BME280;3045;43.226;27.858;2022-11-15T12:00:01;149778.53;;;14.88;100.00
6034;BME280;3045;43.226;27.858;2022-11-15T12:02:31;149796.28;;;14.95;100.00
6034;BME280;3045;43.226;27.858;2022-11-15T12:05:07;149692.31;;;14.54;100.00
6034;BME280;3045;43.226;27.858;2022-11-15T12:07:37;149650.47;;;14.37;100.00
6034;BME280;3045;43.226;27.858;2022-11-15T12:10:16;149656.78;;;14.40;100.00
6034;BME280;3045;43.226;27.858;2022-11-15T12:12:51;149562.94;;;14.02;100.00
6034;BME280;3045;43.226;27.858;2022-11-15T12:15:23;149604.78;;;14.19;100.00
6034;BME280;3045;43.226;27.858;2022-11-15T12:17:53;149651.75;;;14.38;100.00
6034;BME280;3045;43.226;27.858;2022-11-15T12:20:24;149672.03;;;14.46;100.00
6034;BME280;3045;43.226;27.858;2022-11-15T12:22:54;149711.31;;;14.61;100.00
6034;BME280;3045;43.226;27.858;2022-11-15T12:25:28;149678.34;;;14.48;100.00
6034;BME280;3045;43.226;27.858;2022-11-15T12:28:01;149654.25;;;14.39;100.00
6034;BME280;3045;43.226;27.858;2022-11-15T12:30:41;149635.19;;;14.31;100.00
6034;BME280;3045;43.226;27.858;2022-11-15T12:33:32;149679.63;;;14.49;100.00
6034;BME280;3045;43.226;27.858;2022-11-15T12:36:04;149724.00;;;14.67;100.00
6034;BME280;3045;43.226;27.858;2022-11-15T12:38:53;149783.59;;;14.90;100.00
6034;BME280;3045;43.226;27.858;2022-11-15T12:41:22;149792.47;;;14.94;100.00
6034;BME280;3045;43.226;27.858;2022-11-15T12:43:50;149826.72;;;15.07;100.00
6034;BME280;3045;43.226;27.858;2022-11-15T12:46:21;149819.13;;;15.04;100.00
6034;BME280;3045;43.226;27.858;2022-11-15T12:48:52;149825.44;;;15.07;100.00
6034;BME280;3045;43.226;27.858;2022-11-15T12:51:22;149850.84;;;15.17;100.00
6034;BME280;3045;43.226;27.858;2022-11-15T12:57:38;149808.97;;;15.00;100.00
6034;BME280;3045;43.226;27.858;2022-11-15T13:03:33;149798.84;;;14.96;100.00
6034;BME280;3045;43.226;27.858;2022-11-15T13:06:40;149755.72;;;14.79;100.00
6034;BME280;3045;43.226;27.858;2022-11-15T13:15:37;149663.16;;;14.42;100.00
6034;BME280;3045;43.226;27.858;2022-11-15T13:18:37;149689.75;;;14.53;100.00
6034;BME280;3045;43.226;27.858;2022-11-15T13:21:21;149697.34;;;14.56;100.00
6034;BME280;3045;43.226;27.858;2022-11-15T13:24:13;149702.44;;;14.58;100.00
6034;BME280;3045;43.226;27.858;2022-11-15T13:26:40;149623.78;;;14.27;100.00
6034;BME280;3045;43.226;27.858;2022-11-15T13:29:20;149532.53;;;13.90;100.00
6034;BME280;3045;43.226;27.858;2022-11-15T13:31:48;149600.94;;;14.17;100.00
6034;BME280;3045;43.226;27.858;2022-11-15T13:34:29;149575.63;;;14.07;100.00
6034;BME280;3045;43.226;27.858;2022-11-15T13:36:58;149555.34;;;13.99;100.00
6034;BME280;3045;43.226;27.858;2022-11-15T13:39:29;149593.34;;;14.14;100.00